Terminal Aerodrome Forecast
Issued by NWS

Home | Current Version | Previous Version | Text Only | Print | Product List | Glossary On
Versions: 1 2 3 4 5 6 7 8 9 10 11 12 13 14 15 16 17 18 19 20 21
000
FTUS46 KMTR 251500 AAB
TAFSTS
TAF AMD
KSTS 251511Z 2515/2612 00000KT 1/2SM FG VCSH OVC002
      TEMPO 2515/2516 1/4SM FG VV001
     FM251600 30004KT 6SM BR SCT015 BKN035
     FM251900 29012KT P6SM SCT035 BKN050
     FM252100 27012G18KT P6SM SCT040 BKN050
     FM260400 30010KT P6SM SCT015
     FM260800 31004KT P6SM BKN015=

USA.gov is the U.S. government's official web portal to all federal, state and local government web resources and services.